sensor_id;sensor_type;location;lat;lon;timestamp;temperature;humidity
24158;DHT22;12316;50.904;4.200;2023-08-30T00:00:09;14.50;99.90
24158;DHT22;12316;50.904;4.200;2023-08-30T00:02:35;14.40;99.90
24158;DHT22;12316;50.904;4.200;2023-08-30T00:05:03;14.40;99.90
24158;DHT22;12316;50.904;4.200;2023-08-30T00:07:29;14.40;99.90
24158;DHT22;12316;50.904;4.200;2023-08-30T00:09:55;14.30;99.90
24158;DHT22;12316;50.904;4.200;2023-08-30T00:12:21;14.20;99.90
24158;DHT22;12316;50.904;4.200;2023-08-30T00:14:47;14.10;99.90
24158;DHT22;12316;50.904;4.200;2023-08-30T00:17:13;13.90;99.90
24158;DHT22;12316;50.904;4.200;2023-08-30T00:19:39;13.90;99.90
24158;DHT22;12316;50.904;4.200;2023-08-30T00:22:04;13.80;99.90
24158;DHT22;12316;50.904;4.200;2023-08-30T00:24:33;13.70;99.90
24158;DHT22;12316;50.904;4.200;2023-08-30T00:26:59;13.70;99.90
24158;DHT22;12316;50.904;4.200;2023-08-30T00:29:24;13.60;99.90
24158;DHT22;12316;50.904;4.200;2023-08-30T00:31:50;13.60;99.90
24158;DHT22;12316;50.904;4.200;2023-08-30T00:34:16;13.60;99.90
24158;DHT22;12316;50.904;4.200;2023-08-30T00:36:41;13.50;99.90
24158;DHT22;12316;50.904;4.200;2023-08-30T00:39:07;13.60;99.90
24158;DHT22;12316;50.904;4.200;2023-08-30T00:41:34;13.60;99.90
24158;DHT22;12316;50.904;4.200;2023-08-30T00:44:00;13.60;99.90
24158;DHT22;12316;50.904;4.200;2023-08-30T00:46:26;13.60;99.90
24158;DHT22;12316;50.904;4.200;2023-08-30T00:48:52;13.70;99.90
24158;DHT22;12316;50.904;4.200;2023-08-30T00:51:17;13.70;99.90
24158;DHT22;12316;50.904;4.200;2023-08-30T00:53:44;13.60;99.90
24158;DHT22;12316;50.904;4.200;2023-08-30T00:56:10;13.40;99.90
24158;DHT22;12316;50.904;4.200;2023-08-30T00:58:36;13.30;99.90
24158;DHT22;12316;50.904;4.200;2023-08-30T01:01:03;13.30;99.90
24158;DHT22;12316;50.904;4.200;2023-08-30T01:03:30;13.20;99.90
24158;DHT22;12316;50.904;4.200;2023-08-30T01:05:56;13.20;99.90
24158;DHT22;12316;50.904;4.200;2023-08-30T01:08:22;13.10;99.90
24158;DHT22;12316;50.904;4.200;2023-08-30T01:11:05;13.00;99.90
24158;DHT22;12316;50.904;4.200;2023-08-30T01:13:39;13.00;99.90
24158;DHT22;12316;50.904;4.200;2023-08-30T01:16:06;13.00;99.90
24158;DHT22;12316;50.904;4.200;2023-08-30T01:18:34;13.00;99.90
24158;DHT22;12316;50.904;4.200;2023-08-30T01:21:02;13.00;99.90
24158;DHT22;12316;50.904;4.200;2023-08-30T01:26:14;13.00;99.90
24158;DHT22;12316;50.904;4.200;2023-08-30T01:28:45;12.90;99.90
24158;DHT22;12316;50.904;4.200;2023-08-30T01:31:12;13.00;99.90
24158;DHT22;12316;50.904;4.200;2023-08-30T01:33:39;13.20;99.90
24158;DHT22;12316;50.904;4.200;2023-08-30T01:36:06;13.20;99.90
24158;DHT22;12316;50.904;4.200;2023-08-30T01:38:32;13.00;99.90
24158;DHT22;12316;50.904;4.200;2023-08-30T01:40:59;12.90;99.90
24158;DHT22;12316;50.904;4.200;2023-08-30T01:43:28;12.90;99.90
24158;DHT22;12316;50.904;4.200;2023-08-30T01:45:55;12.90;99.90
24158;DHT22;12316;50.904;4.200;2023-08-30T01:48:24;12.90;99.90
24158;DHT22;12316;50.904;4.200;2023-08-30T01:50:51;12.80;99.90
24158;DHT22;12316;50.904;4.200;2023-08-30T01:53:17;12.90;99.90
24158;DHT22;12316;50.904;4.200;2023-08-30T01:55:43;12.80;99.90
24158;DHT22;12316;50.904;4.200;2023-08-30T01:58:09;12.80;99.90
24158;DHT22;12316;50.904;4.200;2023-08-30T02:00:35;12.70;99.90
24158;DHT22;12316;50.904;4.200;2023-08-30T02:03:11;12.60;99.90
24158;DHT22;12316;50.904;4.200;2023-08-30T02:08:26;12.90;99.90
24158;DHT22;12316;50.904;4.200;2023-08-30T02:10:56;13.00;99.90
24158;DHT22;12316;50.904;4.200;2023-08-30T02:13:26;12.90;99.90
24158;DHT22;12316;50.904;4.200;2023-08-30T02:15:57;12.90;99.90
24158;DHT22;12316;50.904;4.200;2023-08-30T02:18:25;12.90;99.90
24158;DHT22;12316;50.904;4.200;2023-08-30T02:20:51;13.00;99.90
24158;DHT22;12316;50.904;4.200;2023-08-30T02:23:17;12.90;99.90
24158;DHT22;12316;50.904;4.200;2023-08-30T02:25:43;13.00;99.90
24158;DHT22;12316;50.904;4.200;2023-08-30T02:28:08;13.10;99.90
24158;DHT22;12316;50.904;4.200;2023-08-30T02:30:34;13.20;99.90
24158;DHT22;12316;50.904;4.200;2023-08-30T02:33:00;13.30;99.90
24158;DHT22;12316;50.904;4.200;2023-08-30T02:35:25;13.40;99.90
24158;DHT22;12316;50.904;4.200;2023-08-30T02:37:51;13.40;99.90
24158;DHT22;12316;50.904;4.200;2023-08-30T02:40:16;13.50;99.90
24158;DHT22;12316;50.904;4.200;2023-08-30T02:42:42;13.60;99.90
24158;DHT22;12316;50.904;4.200;2023-08-30T02:45:08;13.70;99.90
24158;DHT22;12316;50.904;4.200;2023-08-30T02:47:34;13.80;99.90
24158;DHT22;12316;50.904;4.200;2023-08-30T02:50:01;13.80;99.90
24158;DHT22;12316;50.904;4.200;2023-08-30T02:52:26;13.90;99.90
24158;DHT22;12316;50.904;4.200;2023-08-30T02:54:52;14.00;99.90
24158;DHT22;12316;50.904;4.200;2023-08-30T02:57:18;14.10;99.90
24158;DHT22;12316;50.904;4.200;2023-08-30T02:59:43;14.10;99.90
24158;DHT22;12316;50.904;4.200;2023-08-30T03:02:09;14.20;99.90
24158;DHT22;12316;50.904;4.200;2023-08-30T03:04:35;14.30;99.90
24158;DHT22;12316;50.904;4.200;2023-08-30T03:07:00;14.30;99.90
24158;DHT22;12316;50.904;4.200;2023-08-30T03:09:26;14.30;99.90
24158;DHT22;12316;50.904;4.200;2023-08-30T03:11:51;14.30;99.90
24158;DHT22;12316;50.904;4.200;2023-08-30T03:14:17;14.30;99.90
24158;DHT22;12316;50.904;4.200;2023-08-30T03:16:43;14.40;99.90
24158;DHT22;12316;50.904;4.200;2023-08-30T03:19:10;14.40;99.90
24158;DHT22;12316;50.904;4.200;2023-08-30T03:21:36;14.50;99.90
24158;DHT22;12316;50.904;4.200;2023-08-30T03:24:01;14.60;99.90
24158;DHT22;12316;50.904;4.200;2023-08-30T03:26:27;14.60;99.90
24158;DHT22;12316;50.904;4.200;2023-08-30T03:28:52;14.80;99.90
24158;DHT22;12316;50.904;4.200;2023-08-30T03:31:20;14.80;99.90
24158;DHT22;12316;50.904;4.200;2023-08-30T03:33:47;14.90;99.90
24158;DHT22;12316;50.904;4.200;2023-08-30T03:36:15;15.00;99.90
24158;DHT22;12316;50.904;4.200;2023-08-30T03:38:42;15.00;99.90
24158;DHT22;12316;50.904;4.200;2023-08-30T03:41:09;14.90;99.90
24158;DHT22;12316;50.904;4.200;2023-08-30T03:43:35;14.90;99.90
24158;DHT22;12316;50.904;4.200;2023-08-30T03:46:01;14.90;99.90
24158;DHT22;12316;50.904;4.200;2023-08-30T03:48:29;14.80;99.90
24158;DHT22;12316;50.904;4.200;2023-08-30T03:50:55;14.90;99.90
24158;DHT22;12316;50.904;4.200;2023-08-30T03:53:21;14.90;99.90
24158;DHT22;12316;50.904;4.200;2023-08-30T03:55:47;14.90;99.90
24158;DHT22;12316;50.904;4.200;2023-08-30T03:58:12;14.90;99.90
24158;DHT22;12316;50.904;4.200;2023-08-30T04:00:39;15.00;99.90
24158;DHT22;12316;50.904;4.200;2023-08-30T04:03:07;15.20;99.90
24158;DHT22;12316;50.904;4.200;2023-08-30T04:05:34;15.20;99.90
24158;DHT22;12316;50.904;4.200;2023-08-30T04:08:04;15.20;99.90
24158;DHT22;12316;50.904;4.200;2023-08-30T04:10:37;15.20;99.90
24158;DHT22;12316;50.904;4.200;2023-08-30T04:13:04;15.20;99.90
24158;DHT22;12316;50.904;4.200;2023-08-30T04:15:34;15.20;99.90
24158;DHT22;12316;50.904;4.200;2023-08-30T04:18:02;15.30;99.90
24158;DHT22;12316;50.904;4.200;2023-08-30T04:20:29;15.30;99.90
24158;DHT22;12316;50.904;4.200;2023-08-30T04:22:55;15.30;99.90
24158;DHT22;12316;50.904;4.200;2023-08-30T04:25:22;15.20;99.90
24158;DHT22;12316;50.904;4.200;2023-08-30T04:27:48;15.20;99.90
24158;DHT22;12316;50.904;4.200;2023-08-30T04:30:16;15.10;99.90
24158;DHT22;12316;50.904;4.200;2023-08-30T04:32:41;15.20;99.90
24158;DHT22;12316;50.904;4.200;2023-08-30T04:35:07;15.10;99.90
24158;DHT22;12316;50.904;4.200;2023-08-30T04:37:33;15.00;99.90
24158;DHT22;12316;50.904;4.200;2023-08-30T04:39:59;15.00;99.90
24158;DHT22;12316;50.904;4.200;2023-08-30T04:42:25;15.00;99.90
24158;DHT22;12316;50.904;4.200;2023-08-30T04:44:51;15.00;99.90
24158;DHT22;12316;50.904;4.200;2023-08-30T04:47:17;15.00;99.90
24158;DHT22;12316;50.904;4.200;2023-08-30T04:49:43;15.00;99.90
24158;DHT22;12316;50.904;4.200;2023-08-30T04:52:09;14.90;99.90
24158;DHT22;12316;50.904;4.200;2023-08-30T04:54:34;14.90;99.90
24158;DHT22;12316;50.904;4.200;2023-08-30T04:57:00;15.00;99.90
24158;DHT22;12316;50.904;4.200;2023-08-30T04:59:25;15.00;99.90
24158;DHT22;12316;50.904;4.200;2023-08-30T05:01:51;15.00;99.90
24158;DHT22;12316;50.904;4.200;2023-08-30T05:04:17;14.90;99.90
24158;DHT22;12316;50.904;4.200;2023-08-30T05:06:44;14.90;99.90
24158;DHT22;12316;50.904;4.200;2023-08-30T05:09:09;14.80;99.90
24158;DHT22;12316;50.904;4.200;2023-08-30T05:11:35;14.90;99.90
24158;DHT22;12316;50.904;4.200;2023-08-30T05:14:01;14.80;99.90
24158;DHT22;12316;50.904;4.200;2023-08-30T05:16:26;14.80;99.90
24158;DHT22;12316;50.904;4.200;2023-08-30T05:18:52;14.90;99.90
24158;DHT22;12316;50.904;4.200;2023-08-30T05:21:17;14.90;99.90
24158;DHT22;12316;50.904;4.200;2023-08-30T05:23:43;14.90;99.90
24158;DHT22;12316;50.904;4.200;2023-08-30T05:26:10;14.90;99.90
24158;DHT22;12316;50.904;4.200;2023-08-30T05:28:39;14.90;99.90
24158;DHT22;12316;50.904;4.200;2023-08-30T05:31:05;15.00;99.90
24158;DHT22;12316;50.904;4.200;2023-08-30T05:33:31;14.90;99.90
24158;DHT22;12316;50.904;4.200;2023-08-30T05:35:57;15.00;99.90
24158;DHT22;12316;50.904;4.200;2023-08-30T05:38:23;15.10;99.90
24158;DHT22;12316;50.904;4.200;2023-08-30T05:40:48;15.10;99.90
24158;DHT22;12316;50.904;4.200;2023-08-30T05:43:15;15.10;99.90
24158;DHT22;12316;50.904;4.200;2023-08-30T05:45:41;15.10;99.90
24158;DHT22;12316;50.904;4.200;2023-08-30T05:48:07;15.10;99.90
24158;DHT22;12316;50.904;4.200;2023-08-30T05:50:32;15.20;99.90
24158;DHT22;12316;50.904;4.200;2023-08-30T05:52:58;15.20;99.90
24158;DHT22;12316;50.904;4.200;2023-08-30T05:55:24;15.10;99.90
24158;DHT22;12316;50.904;4.200;2023-08-30T05:57:50;15.10;99.90
24158;DHT22;12316;50.904;4.200;2023-08-30T06:00:16;15.20;99.90
24158;DHT22;12316;50.904;4.200;2023-08-30T06:02:42;15.20;99.90
24158;DHT22;12316;50.904;4.200;2023-08-30T06:05:08;15.30;99.90
24158;DHT22;12316;50.904;4.200;2023-08-30T06:07:33;15.20;99.90
24158;DHT22;12316;50.904;4.200;2023-08-30T06:09:59;15.20;99.90
24158;DHT22;12316;50.904;4.200;2023-08-30T06:12:25;15.20;99.90
24158;DHT22;12316;50.904;4.200;2023-08-30T06:14:51;15.20;99.90
24158;DHT22;12316;50.904;4.200;2023-08-30T06:17:19;15.20;99.90
24158;DHT22;12316;50.904;4.200;2023-08-30T06:19:45;15.10;99.90
24158;DHT22;12316;50.904;4.200;2023-08-30T06:22:11;15.10;99.90
24158;DHT22;12316;50.904;4.200;2023-08-30T06:24:37;15.00;99.90
24158;DHT22;12316;50.904;4.200;2023-08-30T06:27:03;15.10;99.90
24158;DHT22;12316;50.904;4.200;2023-08-30T06:29:29;15.10;99.90
24158;DHT22;12316;50.904;4.200;2023-08-30T06:31:54;15.10;99.90
24158;DHT22;12316;50.904;4.200;2023-08-30T06:34:20;15.10;99.90
24158;DHT22;12316;50.904;4.200;2023-08-30T06:36:46;15.10;99.90
24158;DHT22;12316;50.904;4.200;2023-08-30T06:39:11;15.20;99.90
24158;DHT22;12316;50.904;4.200;2023-08-30T06:41:37;15.20;99.90
24158;DHT22;12316;50.904;4.200;2023-08-30T06:44:03;15.10;99.90
24158;DHT22;12316;50.904;4.200;2023-08-30T06:46:30;15.10;99.90
24158;DHT22;12316;50.904;4.200;2023-08-30T06:48:57;15.20;99.90
24158;DHT22;12316;50.904;4.200;2023-08-30T06:51:22;15.40;99.90
24158;DHT22;12316;50.904;4.200;2023-08-30T06:53:48;15.40;99.90
24158;DHT22;12316;50.904;4.200;2023-08-30T06:56:14;15.40;99.90
24158;DHT22;12316;50.904;4.200;2023-08-30T06:58:39;15.40;99.90
24158;DHT22;12316;50.904;4.200;2023-08-30T07:01:05;15.40;99.90
24158;DHT22;12316;50.904;4.200;2023-08-30T07:03:31;15.40;99.90
24158;DHT22;12316;50.904;4.200;2023-08-30T07:05:56;15.30;99.90
24158;DHT22;12316;50.904;4.200;2023-08-30T07:08:23;15.40;99.90
24158;DHT22;12316;50.904;4.200;2023-08-30T07:10:49;15.40;99.90
24158;DHT22;12316;50.904;4.200;2023-08-30T07:13:14;15.50;99.90
24158;DHT22;12316;50.904;4.200;2023-08-30T07:15:41;15.30;99.90
24158;DHT22;12316;50.904;4.200;2023-08-30T07:18:08;15.40;99.90
24158;DHT22;12316;50.904;4.200;2023-08-30T07:20:34;15.40;99.90
24158;DHT22;12316;50.904;4.200;2023-08-30T07:23:03;15.50;99.90
24158;DHT22;12316;50.904;4.200;2023-08-30T07:25:32;15.60;99.90
24158;DHT22;12316;50.904;4.200;2023-08-30T07:28:02;15.70;99.90
24158;DHT22;12316;50.904;4.200;2023-08-30T07:30:28;15.80;99.90
24158;DHT22;12316;50.904;4.200;2023-08-30T07:32:54;16.00;99.90
24158;DHT22;12316;50.904;4.200;2023-08-30T07:35:20;16.10;99.90
24158;DHT22;12316;50.904;4.200;2023-08-30T07:37:46;16.20;99.90
24158;DHT22;12316;50.904;4.200;2023-08-30T07:40:12;16.10;99.90
24158;DHT22;12316;50.904;4.200;2023-08-30T07:42:37;16.10;99.90
24158;DHT22;12316;50.904;4.200;2023-08-30T07:45:03;16.00;99.90
24158;DHT22;12316;50.904;4.200;2023-08-30T07:47:32;16.00;99.90
24158;DHT22;12316;50.904;4.200;2023-08-30T07:49:57;15.90;99.90
24158;DHT22;12316;50.904;4.200;2023-08-30T07:52:23;16.00;99.90
24158;DHT22;12316;50.904;4.200;2023-08-30T07:54:49;16.10;99.90
24158;DHT22;12316;50.904;4.200;2023-08-30T07:57:14;16.00;99.90
24158;DHT22;12316;50.904;4.200;2023-08-30T07:59:40;16.10;99.90
24158;DHT22;12316;50.904;4.200;2023-08-30T08:02:06;16.20;99.90
24158;DHT22;12316;50.904;4.200;2023-08-30T08:04:34;16.40;99.90
24158;DHT22;12316;50.904;4.200;2023-08-30T08:06:59;16.50;99.90
24158;DHT22;12316;50.904;4.200;2023-08-30T08:09:25;16.60;99.90
24158;DHT22;12316;50.904;4.200;2023-08-30T08:11:51;16.70;99.90
24158;DHT22;12316;50.904;4.200;2023-08-30T08:14:17;16.90;99.90
24158;DHT22;12316;50.904;4.200;2023-08-30T08:16:43;17.10;99.90
24158;DHT22;12316;50.904;4.200;2023-08-30T08:19:09;17.30;99.90
24158;DHT22;12316;50.904;4.200;2023-08-30T08:21:35;17.50;99.90
24158;DHT22;12316;50.904;4.200;2023-08-30T08:24:01;17.60;99.90
24158;DHT22;12316;50.904;4.200;2023-08-30T08:26:27;17.60;99.90
24158;DHT22;12316;50.904;4.200;2023-08-30T08:28:54;17.60;99.90
24158;DHT22;12316;50.904;4.200;2023-08-30T08:31:21;17.60;99.90
24158;DHT22;12316;50.904;4.200;2023-08-30T08:33:46;17.60;99.90
24158;DHT22;12316;50.904;4.200;2023-08-30T08:36:12;17.50;99.90
24158;DHT22;12316;50.904;4.200;2023-08-30T08:38:38;17.50;99.90
24158;DHT22;12316;50.904;4.200;2023-08-30T08:41:12;17.40;99.90
24158;DHT22;12316;50.904;4.200;2023-08-30T08:43:40;17.50;99.90
24158;DHT22;12316;50.904;4.200;2023-08-30T08:46:10;17.60;99.90
24158;DHT22;12316;50.904;4.200;2023-08-30T08:48:41;17.60;99.90
24158;DHT22;12316;50.904;4.200;2023-08-30T08:51:06;17.70;99.90
24158;DHT22;12316;50.904;4.200;2023-08-30T08:53:32;17.80;99.90
24158;DHT22;12316;50.904;4.200;2023-08-30T08:55:58;17.80;99.90
24158;DHT22;12316;50.904;4.200;2023-08-30T08:58:26;17.80;99.90
24158;DHT22;12316;50.904;4.200;2023-08-30T09:00:53;17.70;99.90
24158;DHT22;12316;50.904;4.200;2023-08-30T09:03:19;17.50;99.90
24158;DHT22;12316;50.904;4.200;2023-08-30T09:05:46;17.70;99.90
24158;DHT22;12316;50.904;4.200;2023-08-30T09:08:12;18.00;99.90
24158;DHT22;12316;50.904;4.200;2023-08-30T09:10:39;18.10;99.90
24158;DHT22;12316;50.904;4.200;2023-08-30T09:13:05;18.30;99.90
24158;DHT22;12316;50.904;4.200;2023-08-30T09:15:32;18.60;99.90
24158;DHT22;12316;50.904;4.200;2023-08-30T09:17:58;19.00;99.90
24158;DHT22;12316;50.904;4.200;2023-08-30T09:20:23;19.10;99.90
24158;DHT22;12316;50.904;4.200;2023-08-30T09:22:49;19.10;99.90
24158;DHT22;12316;50.904;4.200;2023-08-30T09:25:26;19.00;99.90
24158;DHT22;12316;50.904;4.200;2023-08-30T09:27:58;19.10;99.90
24158;DHT22;12316;50.904;4.200;2023-08-30T09:30:27;19.10;99.90
24158;DHT22;12316;50.904;4.200;2023-08-30T09:32:53;19.10;99.90
24158;DHT22;12316;50.904;4.200;2023-08-30T09:35:19;19.10;99.90
24158;DHT22;12316;50.904;4.200;2023-08-30T09:37:45;19.30;99.90
24158;DHT22;12316;50.904;4.200;2023-08-30T09:40:11;19.30;99.90
24158;DHT22;12316;50.904;4.200;2023-08-30T09:42:42;19.20;99.90
24158;DHT22;12316;50.904;4.200;2023-08-30T09:45:23;19.00;99.90
24158;DHT22;12316;50.904;4.200;2023-08-30T09:47:50;18.90;99.90
24158;DHT22;12316;50.904;4.200;2023-08-30T09:50:20;18.80;99.90
24158;DHT22;12316;50.904;4.200;2023-08-30T09:52:49;18.80;99.90
24158;DHT22;12316;50.904;4.200;2023-08-30T09:55:18;18.80;99.90
24158;DHT22;12316;50.904;4.200;2023-08-30T09:57:44;18.90;99.90
24158;DHT22;12316;50.904;4.200;2023-08-30T10:00:10;18.80;99.90
24158;DHT22;12316;50.904;4.200;2023-08-30T10:02:43;18.90;99.90
24158;DHT22;12316;50.904;4.200;2023-08-30T10:05:12;19.10;99.90
24158;DHT22;12316;50.904;4.200;2023-08-30T10:07:41;19.20;99.90
24158;DHT22;12316;50.904;4.200;2023-08-30T10:10:10;19.40;99.90
24158;DHT22;12316;50.904;4.200;2023-08-30T10:12:36;19.80;99.90
24158;DHT22;12316;50.904;4.200;2023-08-30T10:15:02;20.20;99.90
24158;DHT22;12316;50.904;4.200;2023-08-30T10:17:32;20.60;99.90
24158;DHT22;12316;50.904;4.200;2023-08-30T10:19:59;20.60;99.90
24158;DHT22;12316;50.904;4.200;2023-08-30T10:22:26;20.90;99.90
24158;DHT22;12316;50.904;4.200;2023-08-30T10:24:55;20.90;99.90
24158;DHT22;12316;50.904;4.200;2023-08-30T10:27:22;21.00;99.90
24158;DHT22;12316;50.904;4.200;2023-08-30T10:29:50;21.20;99.90
24158;DHT22;12316;50.904;4.200;2023-08-30T10:32:20;21.30;99.90
24158;DHT22;12316;50.904;4.200;2023-08-30T10:34:50;21.50;99.90
24158;DHT22;12316;50.904;4.200;2023-08-30T10:37:21;21.60;99.90
24158;DHT22;12316;50.904;4.200;2023-08-30T10:39:48;21.70;99.90
24158;DHT22;12316;50.904;4.200;2023-08-30T10:42:16;21.60;99.90
24158;DHT22;12316;50.904;4.200;2023-08-30T10:47:34;21.70;99.90
24158;DHT22;12316;50.904;4.200;2023-08-30T10:50:08;21.60;99.90
24158;DHT22;12316;50.904;4.200;2023-08-30T10:52:34;21.50;99.90
24158;DHT22;12316;50.904;4.200;2023-08-30T10:55:14;21.40;99.90
24158;DHT22;12316;50.904;4.200;2023-08-30T10:57:45;21.30;99.90
24158;DHT22;12316;50.904;4.200;2023-08-30T11:00:21;21.30;99.90
24158;DHT22;12316;50.904;4.200;2023-08-30T11:02:51;21.30;99.90
24158;DHT22;12316;50.904;4.200;2023-08-30T11:05:18;21.30;99.90
24158;DHT22;12316;50.904;4.200;2023-08-30T11:07:44;21.40;99.90
24158;DHT22;12316;50.904;4.200;2023-08-30T11:10:10;21.50;99.90
24158;DHT22;12316;50.904;4.200;2023-08-30T11:12:36;21.40;99.90
24158;DHT22;12316;50.904;4.200;2023-08-30T11:15:03;21.50;99.90
24158;DHT22;12316;50.904;4.200;2023-08-30T11:17:29;21.40;99.90
24158;DHT22;12316;50.904;4.200;2023-08-30T11:20:08;21.30;99.90
24158;DHT22;12316;50.904;4.200;2023-08-30T11:25:08;20.90;99.90
24158;DHT22;12316;50.904;4.200;2023-08-30T11:27:34;21.00;99.90
24158;DHT22;12316;50.904;4.200;2023-08-30T11:30:01;21.20;99.90
24158;DHT22;12316;50.904;4.200;2023-08-30T11:32:38;21.50;99.90
24158;DHT22;12316;50.904;4.200;2023-08-30T11:35:05;21.80;99.90
24158;DHT22;12316;50.904;4.200;2023-08-30T11:37:32;21.80;99.90
24158;DHT22;12316;50.904;4.200;2023-08-30T11:39:58;21.70;99.90
24158;DHT22;12316;50.904;4.200;2023-08-30T11:42:25;21.60;99.90
24158;DHT22;12316;50.904;4.200;2023-08-30T11:44:51;21.50;99.90
24158;DHT22;12316;50.904;4.200;2023-08-30T11:47:23;21.50;99.90
24158;DHT22;12316;50.904;4.200;2023-08-30T11:49:49;21.30;99.90
24158;DHT22;12316;50.904;4.200;2023-08-30T11:52:16;20.70;99.90
24158;DHT22;12316;50.904;4.200;2023-08-30T11:54:43;20.60;99.90
24158;DHT22;12316;50.904;4.200;2023-08-30T11:57:09;20.10;99.90
24158;DHT22;12316;50.904;4.200;2023-08-30T11:59:35;20.10;99.90
24158;DHT22;12316;50.904;4.200;2023-08-30T12:02:02;20.20;99.90
24158;DHT22;12316;50.904;4.200;2023-08-30T12:04:29;20.20;99.90
24158;DHT22;12316;50.904;4.200;2023-08-30T12:06:55;20.40;99.90
24158;DHT22;12316;50.904;4.200;2023-08-30T12:09:21;20.40;99.90
24158;DHT22;12316;50.904;4.200;2023-08-30T12:11:50;20.30;99.90
24158;DHT22;12316;50.904;4.200;2023-08-30T12:14:15;20.50;99.90
24158;DHT22;12316;50.904;4.200;2023-08-30T12:16:42;20.60;99.90
24158;DHT22;12316;50.904;4.200;2023-08-30T12:19:11;20.70;99.90
24158;DHT22;12316;50.904;4.200;2023-08-30T12:21:44;20.90;99.90
24158;DHT22;12316;50.904;4.200;2023-08-30T12:24:10;21.20;99.90
24158;DHT22;12316;50.904;4.200;2023-08-30T12:26:36;21.50;99.90
24158;DHT22;12316;50.904;4.200;2023-08-30T12:29:05;21.60;99.90
24158;DHT22;12316;50.904;4.200;2023-08-30T12:31:32;21.30;99.90
24158;DHT22;12316;50.904;4.200;2023-08-30T12:33:58;21.10;99.90
24158;DHT22;12316;50.904;4.200;2023-08-30T12:36:24;20.70;99.90
24158;DHT22;12316;50.904;4.200;2023-08-30T12:38:50;20.50;99.90
24158;DHT22;12316;50.904;4.200;2023-08-30T12:41:16;20.40;99.90
24158;DHT22;12316;50.904;4.200;2023-08-30T12:43:41;20.30;99.90
24158;DHT22;12316;50.904;4.200;2023-08-30T12:46:07;20.10;99.90
24158;DHT22;12316;50.904;4.200;2023-08-30T12:48:33;20.30;99.90
24158;DHT22;12316;50.904;4.200;2023-08-30T12:50:58;20.40;99.90
24158;DHT22;12316;50.904;4.200;2023-08-30T12:53:24;20.40;99.90
24158;DHT22;12316;50.904;4.200;2023-08-30T12:55:49;20.60;99.90
24158;DHT22;12316;50.904;4.200;2023-08-30T12:58:15;21.00;99.90
24158;DHT22;12316;50.904;4.200;2023-08-30T13:00:41;21.20;99.90
24158;DHT22;12316;50.904;4.200;2023-08-30T13:03:06;21.10;99.90
24158;DHT22;12316;50.904;4.200;2023-08-30T13:05:32;20.70;99.90
24158;DHT22;12316;50.904;4.200;2023-08-30T13:07:59;20.40;99.90
24158;DHT22;12316;50.904;4.200;2023-08-30T13:10:25;20.20;99.90
24158;DHT22;12316;50.904;4.200;2023-08-30T13:12:51;20.00;99.90
24158;DHT22;12316;50.904;4.200;2023-08-30T13:15:17;19.90;99.90
24158;DHT22;12316;50.904;4.200;2023-08-30T13:17:43;20.00;99.90
24158;DHT22;12316;50.904;4.200;2023-08-30T13:20:09;20.10;99.90
24158;DHT22;12316;50.904;4.200;2023-08-30T13:22:36;20.00;99.90
24158;DHT22;12316;50.904;4.200;2023-08-30T13:25:02;20.00;99.90
24158;DHT22;12316;50.904;4.200;2023-08-30T13:27:29;20.10;99.90
24158;DHT22;12316;50.904;4.200;2023-08-30T13:29:55;20.30;99.90
24158;DHT22;12316;50.904;4.200;2023-08-30T13:32:20;20.30;99.90
24158;DHT22;12316;50.904;4.200;2023-08-30T13:34:46;20.40;99.90
24158;DHT22;12316;50.904;4.200;2023-08-30T13:37:13;20.30;99.90
24158;DHT22;12316;50.904;4.200;2023-08-30T13:39:40;20.40;99.90
24158;DHT22;12316;50.904;4.200;2023-08-30T13:42:06;20.20;99.90
24158;DHT22;12316;50.904;4.200;2023-08-30T13:44:32;20.20;99.90
24158;DHT22;12316;50.904;4.200;2023-08-30T13:46:58;20.10;99.90
24158;DHT22;12316;50.904;4.200;2023-08-30T13:49:24;20.00;99.90
24158;DHT22;12316;50.904;4.200;2023-08-30T13:51:49;20.20;99.90
24158;DHT22;12316;50.904;4.200;2023-08-30T13:54:15;20.40;99.90
24158;DHT22;12316;50.904;4.200;2023-08-30T13:56:42;20.40;99.90
24158;DHT22;12316;50.904;4.200;2023-08-30T13:59:08;20.10;99.90
24158;DHT22;12316;50.904;4.200;2023-08-30T14:01:34;20.10;99.90
24158;DHT22;12316;50.904;4.200;2023-08-30T14:04:03;20.10;99.90
24158;DHT22;12316;50.904;4.200;2023-08-30T14:06:32;19.80;99.90
24158;DHT22;12316;50.904;4.200;2023-08-30T14:08:58;19.60;99.90
24158;DHT22;12316;50.904;4.200;2023-08-30T14:11:23;19.50;99.90
24158;DHT22;12316;50.904;4.200;2023-08-30T14:13:49;19.30;99.90
24158;DHT22;12316;50.904;4.200;2023-08-30T14:16:15;19.40;99.90
24158;DHT22;12316;50.904;4.200;2023-08-30T14:18:40;19.50;99.90
24158;DHT22;12316;50.904;4.200;2023-08-30T14:21:06;19.70;99.90
24158;DHT22;12316;50.904;4.200;2023-08-30T14:23:33;19.70;99.90
24158;DHT22;12316;50.904;4.200;2023-08-30T14:26:02;19.70;99.90
24158;DHT22;12316;50.904;4.200;2023-08-30T14:28:38;19.70;99.90
24158;DHT22;12316;50.904;4.200;2023-08-30T14:31:06;19.80;99.90
24158;DHT22;12316;50.904;4.200;2023-08-30T14:33:33;19.90;99.90
24158;DHT22;12316;50.904;4.200;2023-08-30T14:35:59;20.00;99.90
24158;DHT22;12316;50.904;4.200;2023-08-30T14:38:26;20.30;99.90
24158;DHT22;12316;50.904;4.200;2023-08-30T14:40:59;20.70;99.90
24158;DHT22;12316;50.904;4.200;2023-08-30T14:43:27;20.80;99.90
24158;DHT22;12316;50.904;4.200;2023-08-30T14:46:02;20.80;99.90
24158;DHT22;12316;50.904;4.200;2023-08-30T14:48:29;20.60;99.90
24158;DHT22;12316;50.904;4.200;2023-08-30T14:51:00;20.60;99.90
24158;DHT22;12316;50.904;4.200;2023-08-30T14:53:26;20.60;99.90
24158;DHT22;12316;50.904;4.200;2023-08-30T14:55:52;20.30;99.90
24158;DHT22;12316;50.904;4.200;2023-08-30T14:58:18;20.10;99.90
24158;DHT22;12316;50.904;4.200;2023-08-30T15:00:47;20.10;99.90
24158;DHT22;12316;50.904;4.200;2023-08-30T15:03:12;19.90;99.90
24158;DHT22;12316;50.904;4.200;2023-08-30T15:05:38;19.60;99.90
24158;DHT22;12316;50.904;4.200;2023-08-30T15:08:05;19.50;99.90
24158;DHT22;12316;50.904;4.200;2023-08-30T15:10:31;19.40;99.90
24158;DHT22;12316;50.904;4.200;2023-08-30T15:12:56;19.50;99.90
24158;DHT22;12316;50.904;4.200;2023-08-30T15:15:22;19.60;99.90
24158;DHT22;12316;50.904;4.200;2023-08-30T15:17:47;19.80;99.90
24158;DHT22;12316;50.904;4.200;2023-08-30T15:20:13;19.90;99.90
24158;DHT22;12316;50.904;4.200;2023-08-30T15:22:39;20.00;99.90
24158;DHT22;12316;50.904;4.200;2023-08-30T15:25:05;19.80;99.90
24158;DHT22;12316;50.904;4.200;2023-08-30T15:27:33;19.80;99.90
24158;DHT22;12316;50.904;4.200;2023-08-30T15:29:59;19.90;99.90
24158;DHT22;12316;50.904;4.200;2023-08-30T15:32:25;19.80;99.90
24158;DHT22;12316;50.904;4.200;2023-08-30T15:34:50;19.90;99.90
24158;DHT22;12316;50.904;4.200;2023-08-30T15:37:17;19.90;99.90